Terminal Aerodrome Forecast
Issued by NWS

Current Version | Previous Version | Text Only | Print | Product List | Glossary On
Versions: 1 2 3 4 5 6 7 8 9 10 11 12 13 14 15 16
000
FTUS46 KOTX 052326
TAFCOE
TAF
KCOE 052326Z 0600/0624 27005KT P6SM SCT050 SCT120 BKN250
     FM060300 02008KT P6SM FEW060 BKN200
     FM061000 03013KT P6SM BKN150
     FM061500 04023KT P6SM SCT150
      AMD LTD TO CLD VIS AND WIND=

USA.gov is the U.S. government's official web portal to all federal, state and local government web resources and services.